Time;durP1;ratioP1;P1;durP2;ratioP2;P2;SDS_P1;SDS_P2;PMS_P1;PMS_P2;Temp;Humidity;BMP_temperature;BMP_pressure;BME280_temperature;BME280_humidity;BME280_pressure;Samples;Min_cycle;Max_cycle;Signal;HPM_P1;HPM_P2
2021/08/28 00:01:54;;;;;;;3.30;3.00;;;;;;;12.12;100.00;100665.63;5010796;28;20644;-72
2021/08/28 00:04:19;;;;;;;3.00;2.70;;;;;;;12.15;100.00;100669.66;5010585;28;20204;-72
2021/08/28 00:06:45;;;;;;;2.50;2.30;;;;;;;12.12;100.00;100667.56;5009411;28;20438;-72
2021/08/28 00:09:10;;;;;;;3.53;2.90;;;;;;;12.11;100.00;100666.75;5010437;28;20181;-72
2021/08/28 00:11:36;;;;;;;3.23;3.00;;;;;;;12.12;100.00;100671.09;5010654;28;20654;-72
2021/08/28 00:14:01;;;;;;;3.50;2.73;;;;;;;12.11;100.00;100664.00;5010428;28;20664;-72
2021/08/28 00:16:27;;;;;;;2.63;2.43;;;;;;;12.10;100.00;100661.59;5010615;28;20191;-72
2021/08/28 00:18:52;;;;;;;3.80;2.47;;;;;;;12.11;100.00;100665.94;5010549;28;20275;-73
2021/08/28 00:21:18;;;;;;;2.73;2.53;;;;;;;12.09;100.00;100666.25;5011093;28;20213;-72
2021/08/28 00:23:43;;;;;;;4.33;3.20;;;;;;;12.12;100.00;100664.81;5010134;28;20223;-73
2021/08/28 00:26:08;;;;;;;3.63;3.37;;;;;;;12.11;100.00;100668.69;5010621;28;20238;-73
2021/08/28 00:28:34;;;;;;;2.80;2.60;;;;;;;12.10;100.00;100667.88;5010393;28;20176;-73
2021/08/28 00:30:59;;;;;;;3.13;2.80;;;;;;;12.08;100.00;100667.38;5010486;28;20266;-73
2021/08/28 00:33:25;;;;;;;2.80;2.37;;;;;;;12.06;100.00;100666.09;5010426;28;20191;-72
2021/08/28 00:35:50;;;;;;;3.43;3.13;;;;;;;12.05;100.00;100668.03;5010179;28;20180;-73
2021/08/28 00:38:15;;;;;;;2.43;2.33;;;;;;;12.05;100.00;100668.03;5010293;28;20185;-73
2021/08/28 00:40:41;;;;;;;2.90;2.60;;;;;;;12.05;100.00;100669.97;5010470;28;20464;-73
2021/08/28 00:43:06;;;;;;;2.30;2.20;;;;;;;12.06;100.00;100668.84;5010106;28;20259;-73
2021/08/28 00:45:36;;;;;;;3.40;2.50;;;;;;;12.06;100.00;100671.56;5010076;28;20203;-73
2021/08/28 00:48:04;;;;;;;2.13;2.03;;;;;;;12.03;100.00;100669.47;5010157;28;20208;-73
2021/08/28 00:50:31;;;;;;;2.50;2.37;;;;;;;12.01;100.00;100666.25;5008967;28;20523;-72
2021/08/28 00:52:57;;;;;;;2.10;2.00;;;;;;;11.96;100.00;100663.63;5010239;28;20684;-72
2021/08/28 00:55:25;;;;;;;2.27;2.10;;;;;;;11.98;100.00;100664.13;5010144;28;20177;-73
2021/08/28 00:57:51;;;;;;;2.10;2.00;;;;;;;11.98;100.00;100667.66;5010601;28;20203;-73
2021/08/28 01:00:17;;;;;;;6.03;2.13;;;;;;;11.98;100.00;100666.84;5010182;28;20173;-73
2021/08/28 01:02:46;;;;;;;2.90;2.30;;;;;;;11.99;100.00;100665.72;5008749;28;20625;-73
2021/08/28 01:05:17;;;;;;;2.50;2.30;;;;;;;11.98;100.00;100664.91;5009829;28;20555;-73
2021/08/28 01:08:08;;;;;;;2.57;2.37;;;;;;;12.00;100.00;100672.81;5010508;28;20237;-73
2021/08/28 01:10:38;;;;;;;2.47;2.27;;;;;;;12.02;100.00;100674.13;5013796;28;20184;-73
2021/08/28 01:13:08;;;;;;;2.77;2.57;;;;;;;12.03;100.00;100667.53;5013852;28;20690;-73
2021/08/28 01:15:37;;;;;;;2.30;2.10;;;;;;;12.07;100.00;100678.66;5013429;28;20179;-73
2021/08/28 01:18:04;;;;;;;3.00;2.80;;;;;;;12.08;100.00;100677.53;5013676;28;20585;-73
2021/08/28 01:20:45;;;;;;;2.20;2.10;;;;;;;12.09;100.00;100679.97;5013662;28;20176;-73
2021/08/28 01:23:11;;;;;;;2.27;2.13;;;;;;;12.08;100.00;100681.09;5013601;28;20185;-73
2021/08/28 01:25:37;;;;;;;2.60;2.40;;;;;;;12.09;100.00;100681.88;5013265;28;20248;-73
2021/08/28 01:28:07;;;;;;;2.50;2.30;;;;;;;12.10;100.00;100680.75;5013119;28;20212;-73
2021/08/28 01:30:34;;;;;;;2.43;2.13;;;;;;;12.09;100.00;100671.75;5013516;28;20181;-73
2021/08/28 01:33:02;;;;;;;2.80;2.60;;;;;;;12.16;100.00;100685.00;5013420;28;20209;-73
2021/08/28 01:35:28;;;;;;;2.93;2.73;;;;;;;12.18;100.00;100680.00;5013148;28;20276;-73
2021/08/28 01:37:55;;;;;;;2.53;2.33;;;;;;;12.21;100.00;100682.91;5013283;28;20432;-73
2021/08/28 01:40:21;;;;;;;2.37;2.17;;;;;;;12.27;100.00;100685.50;5013276;28;20651;-73
2021/08/28 01:42:47;;;;;;;2.87;2.67;;;;;;;12.26;100.00;100681.94;5013037;28;20192;-73
2021/08/28 01:45:15;;;;;;;2.07;1.97;;;;;;;12.25;100.00;100685.00;5012916;28;20176;-73
2021/08/28 01:47:42;;;;;;;3.73;2.47;;;;;;;12.20;100.00;100686.78;5012998;28;20559;-73
2021/08/28 01:50:09;;;;;;;2.77;2.57;;;;;;;12.18;100.00;100686.28;5013490;28;20271;-74
2021/08/28 01:52:34;;;;;;;4.37;2.83;;;;;;;12.19;100.00;100687.91;5012876;28;20165;-73
2021/08/28 01:54:59;;;;;;;3.50;2.87;;;;;;;12.23;100.00;100685.34;5013108;28;20268;-73
2021/08/28 01:57:26;;;;;;;3.17;2.97;;;;;;;12.28;100.00;100700.81;5013283;28;20184;-73
2021/08/28 01:59:51;;;;;;;3.00;2.80;;;;;;;12.30;100.00;100693.09;5013183;28;20264;-73
2021/08/28 02:02:17;;;;;;;3.37;3.17;;;;;;;12.32;100.00;100696.34;5012914;28;20256;-73
2021/08/28 02:04:43;;;;;;;3.73;3.53;;;;;;;12.33;100.00;100698.75;5011226;28;20173;-74
2021/08/28 02:07:11;;;;;;;3.13;2.93;;;;;;;12.35;100.00;100701.19;5011485;28;20299;-73
2021/08/28 02:09:44;;;;;;;4.17;3.87;;;;;;;12.35;100.00;100695.69;5012788;28;20632;-73
2021/08/28 02:12:32;;;;;;;4.23;3.77;;;;;;;12.37;100.00;100697.00;5012666;28;20177;-74
2021/08/28 02:15:20;;;;;;;4.53;3.80;;;;;;;12.40;100.00;100690.88;5012464;28;20628;-73
2021/08/28 02:18:16;;;;;;;4.00;3.60;;;;;;;12.40;100.00;100690.88;5012501;28;20203;-73
2021/08/28 02:20:47;;;;;;;3.73;3.43;;;;;;;12.40;100.00;100684.59;5003934;28;20197;-73
2021/08/28 02:23:19;;;;;;;4.27;3.97;;;;;;;12.37;100.00;100507.94;5012429;28;20210;-73
2021/08/28 02:26:19;;;;;;;5.10;4.70;;;;;;;12.37;100.00;100655.88;5011969;28;20185;-73
2021/08/28 02:28:56;;;;;;;4.43;4.13;;;;;;;12.41;100.00;100623.16;5007710;28;20192;-74
2021/08/28 02:31:24;;;;;;;5.40;5.00;;;;;;;12.40;100.00;100613.34;5011086;28;20176;-74
2021/08/28 02:33:53;;;;;;;7.53;4.63;;;;;;;12.43;100.00;100599.81;5010686;28;20644;-74
2021/08/28 02:36:18;;;;;;;5.10;4.70;;;;;;;12.45;100.00;100603.06;5012049;28;20184;-73
2021/08/28 02:38:46;;;;;;;7.00;5.77;;;;;;;12.44;100.00;100604.19;5012469;28;20321;-74
2021/08/28 02:41:12;;;;;;;6.43;5.83;;;;;;;12.45;100.00;100615.94;5009006;28;20231;-74
2021/08/28 02:43:39;;;;;;;5.40;4.90;;;;;;;12.47;100.00;100617.25;5012069;28;20272;-74
2021/08/28 02:46:05;;;;;;;5.00;4.60;;;;;;;12.44;100.00;100628.00;5012450;28;20220;-73
2021/08/28 02:48:33;;;;;;;5.50;5.00;;;;;;;12.43;100.00;100616.25;5012452;28;20173;-73
2021/08/28 02:51:01;;;;;;;6.70;6.10;;;;;;;12.39;100.00;100625.44;5012552;28;20188;-73
2021/08/28 02:53:26;;;;;;;7.13;6.43;;;;;;;12.39;100.00;100623.50;5012384;28;20253;-73
2021/08/28 02:55:53;;;;;;;6.30;5.70;;;;;;;12.39;100.00;100630.91;5012314;28;20208;-73
2021/08/28 02:58:21;;;;;;;6.13;5.63;;;;;;;12.38;100.00;100612.84;5012351;28;20173;-73
2021/08/28 03:00:47;;;;;;;6.83;6.23;;;;;;;12.37;100.00;100628.50;5012250;28;20251;-73
2021/08/28 03:03:14;;;;;;;7.30;6.70;;;;;;;12.36;100.00;100618.66;5012273;28;20183;-73
2021/08/28 03:05:44;;;;;;;8.43;6.57;;;;;;;12.37;100.00;100622.19;5011961;28;20177;-73
2021/08/28 03:08:09;;;;;;;6.93;6.37;;;;;;;12.38;100.00;100630.09;5012194;28;20227;-73
2021/08/28 03:10:35;;;;;;;6.50;5.90;;;;;;;12.39;100.00;100631.72;5012213;28;20180;-73
2021/08/28 03:13:00;;;;;;;7.57;6.97;;;;;;;12.41;100.00;100625.91;5012103;28;20176;-74
2021/08/28 03:15:26;;;;;;;6.73;6.23;;;;;;;12.42;100.00;100633.81;5011846;28;20211;-73
2021/08/28 03:17:51;;;;;;;7.83;7.13;;;;;;;12.40;100.00;100627.84;5012102;28;20283;-74
2021/08/28 03:20:18;;;;;;;6.03;5.53;;;;;;;12.41;100.00;100632.19;5012216;28;20191;-73
2021/08/28 03:22:45;;;;;;;7.13;6.57;;;;;;;12.43;100.00;100627.19;5011975;28;20176;-73
2021/08/28 03:25:12;;;;;;;7.23;6.63;;;;;;;12.43;100.00;100631.88;5011043;28;20535;-74
2021/08/28 03:27:40;;;;;;;6.57;6.03;;;;;;;12.46;100.00;100632.06;5011199;28;20204;-74
2021/08/28 03:30:09;;;;;;;6.80;6.20;;;;;;;12.47;100.00;100622.72;5011001;28;20180;-73
2021/08/28 03:32:35;;;;;;;7.50;6.80;;;;;;;12.49;100.00;100623.19;5010716;28;20173;-74
2021/08/28 03:35:02;;;;;;;8.00;7.30;;;;;;;12.52;100.00;100630.78;5010818;28;20224;-73
2021/08/28 03:37:27;;;;;;;7.23;6.67;;;;;;;12.55;100.00;100634.81;5011210;28;20259;-74
2021/08/28 03:39:54;;;;;;;6.53;5.87;;;;;;;12.61;100.00;100627.25;5011392;28;20268;-74
2021/08/28 03:42:19;;;;;;;7.77;7.07;;;;;;;12.64;100.00;100621.94;5010926;28;20184;-74
2021/08/28 03:44:45;;;;;;;8.10;7.40;;;;;;;12.60;100.00;100622.91;5010662;28;20183;-73
2021/08/28 03:47:14;;;;;;;7.97;7.33;;;;;;;12.62;100.00;100626.13;5010921;28;20212;-73
2021/08/28 03:49:40;;;;;;;11.00;7.63;;;;;;;12.63;100.00;100619.50;5010788;28;20633;-74
2021/08/28 03:52:06;;;;;;;8.03;7.33;;;;;;;12.69;100.00;100629.19;5010894;28;20176;-74
2021/08/28 03:54:31;;;;;;;7.77;7.13;;;;;;;12.69;100.00;100621.78;5010484;28;20239;-74
2021/08/28 03:56:56;;;;;;;8.47;7.77;;;;;;;12.67;100.00;100625.97;5010867;28;20176;-74
2021/08/28 03:59:22;;;;;;;7.63;7.03;;;;;;;12.63;100.00;100616.78;5010955;28;20223;-73
2021/08/28 04:01:47;;;;;;;7.60;6.93;;;;;;;12.55;100.00;100623.84;5010902;28;20562;-74
2021/08/28 04:04:13;;;;;;;8.47;7.67;;;;;;;12.54;100.00;100621.44;5010405;28;20168;-73
2021/08/28 04:06:38;;;;;;;8.43;7.77;;;;;;;12.57;100.00;100620.78;5010645;28;20204;-74
2021/08/28 04:09:04;;;;;;;8.73;8.03;;;;;;;12.58;100.00;100625.13;5010464;28;20267;-74
2021/08/28 04:11:29;;;;;;;9.03;8.33;;;;;;;12.59;100.00;100630.31;5010614;28;20200;-74
2021/08/28 04:13:54;;;;;;;8.17;7.40;;;;;;;12.60;100.00;100633.88;5010314;28;20573;-74
2021/08/28 04:16:20;;;;;;;8.23;7.53;;;;;;;12.60;100.00;100620.97;5010672;28;20628;-73
2021/08/28 04:18:45;;;;;;;8.90;8.13;;;;;;;12.57;100.00;100618.03;5010435;28;20218;-74
2021/08/28 04:21:10;;;;;;;6.87;6.27;;;;;;;12.57;100.00;100615.28;5010556;28;20680;-73
2021/08/28 04:23:36;;;;;;;6.83;6.33;;;;;;;12.51;100.00;100623.69;5010277;28;20211;-73
2021/08/28 04:26:01;;;;;;;7.80;7.20;;;;;;;12.47;100.00;100622.72;5010231;28;20180;-74
2021/08/28 04:28:26;;;;;;;10.20;6.70;;;;;;;12.43;100.00;100621.72;5010566;28;20184;-74
2021/08/28 04:30:52;;;;;;;5.97;5.47;;;;;;;12.39;100.00;100618.00;5010498;28;20176;-74
2021/08/28 04:33:17;;;;;;;5.47;5.07;;;;;;;12.34;100.00;100623.66;5010539;28;20685;-74
2021/08/28 04:35:42;;;;;;;5.93;5.43;;;;;;;12.29;100.00;100614.75;5010168;28;20179;-74
2021/08/28 04:38:08;;;;;;;5.63;5.13;;;;;;;12.29;100.00;100621.03;5010493;28;20181;-74
2021/08/28 04:40:33;;;;;;;6.30;5.80;;;;;;;12.28;100.00;100624.91;5009231;28;20184;-73
2021/08/28 04:42:59;;;;;;;5.73;5.00;;;;;;;12.34;100.00;100631.88;5009694;28;20181;-74
2021/08/28 04:45:24;;;;;;;6.50;5.83;;;;;;;12.39;100.00;100625.44;5014314;28;20179;-74
2021/08/28 04:47:50;;;;;;;6.13;5.63;;;;;;;12.42;100.00;100624.78;5014179;28;20208;-74
2021/08/28 04:50:15;;;;;;;7.07;6.53;;;;;;;12.48;100.00;100634.47;5014485;28;20184;-73
2021/08/28 04:52:40;;;;;;;6.77;6.17;;;;;;;12.50;100.00;100630.28;5014071;28;20231;-74
2021/08/28 04:55:06;;;;;;;5.70;5.27;;;;;;;12.51;100.00;100637.38;5013913;28;20717;-74
2021/08/28 04:57:31;;;;;;;6.63;5.43;;;;;;;12.55;100.00;100642.22;5014199;28;20209;-73
2021/08/28 04:59:57;;;;;;;6.70;6.10;;;;;;;12.61;100.00;100640.97;5014070;28;20188;-73
2021/08/28 05:02:22;;;;;;;8.53;5.83;;;;;;;12.62;100.00;100648.06;5013930;28;20177;-74
2021/08/28 05:04:48;;;;;;;6.50;5.83;;;;;;;12.70;100.00;100647.25;5013724;28;20707;-74
2021/08/28 05:07:13;;;;;;;6.63;6.00;;;;;;;12.80;100.00;100653.22;5013788;28;20204;-74
2021/08/28 05:09:38;;;;;;;6.27;5.80;;;;;;;12.85;100.00;100656.94;5013787;28;20661;-74
2021/08/28 05:12:04;;;;;;;6.17;5.63;;;;;;;12.84;100.00;100656.13;5014059;28;20394;-74
2021/08/28 05:14:29;;;;;;;6.77;6.17;;;;;;;12.80;100.00;100661.47;5013528;28;20630;-74
2021/08/28 05:16:55;;;;;;;7.30;6.60;;;;;;;12.78;100.00;100654.69;5013755;28;20648;-74
2021/08/28 05:19:21;;;;;;;7.13;6.53;;;;;;;12.79;100.00;100657.09;5013786;28;20180;-74
2021/08/28 05:21:46;;;;;;;6.33;5.73;;;;;;;12.78;100.00;100654.69;5013515;28;20694;-73
2021/08/28 05:24:13;;;;;;;6.50;5.90;;;;;;;12.81;100.00;100660.31;5013381;28;20196;-74
2021/08/28 05:26:38;;;;;;;7.17;6.47;;;;;;;12.81;100.00;100663.06;5012308;28;20590;-74
2021/08/28 05:29:03;;;;;;;7.63;6.93;;;;;;;12.81;100.00;100660.31;5013588;28;20420;-74
2021/08/28 05:31:29;;;;;;;6.53;5.93;;;;;;;12.80;100.00;100668.88;5013279;28;20640;-73
2021/08/28 05:33:57;;;;;;;6.87;6.13;;;;;;;12.82;100.00;100669.34;5013144;28;20247;-74
2021/08/28 05:36:22;;;;;;;7.00;6.40;;;;;;;12.80;100.00;100677.91;5012715;28;20185;-73
2021/08/28 05:38:48;;;;;;;6.37;5.87;;;;;;;12.78;100.00;100684.84;5013389;28;20181;-74
2021/08/28 05:41:13;;;;;;;7.13;6.37;;;;;;;12.75;100.00;100678.06;5013081;28;20239;-74
2021/08/28 05:43:39;;;;;;;8.03;7.33;;;;;;;12.72;100.00;100683.38;5012591;28;20679;-73
2021/08/28 05:46:05;;;;;;;7.93;7.13;;;;;;;12.75;100.00;100677.28;5013322;28;20180;-74
2021/08/28 05:48:30;;;;;;;8.13;7.37;;;;;;;12.77;100.00;100684.03;5012000;28;20215;-73
2021/08/28 05:50:56;;;;;;;8.13;7.43;;;;;;;12.83;100.00;100687.44;5013181;28;20204;-73
2021/08/28 05:53:21;;;;;;;7.27;6.67;;;;;;;12.85;100.00;100687.09;5013283;28;20177;-73
2021/08/28 05:55:46;;;;;;;6.87;6.27;;;;;;;12.97;100.00;100696.31;5012501;28;20625;-73
2021/08/28 05:58:12;;;;;;;5.83;5.23;;;;;;;12.99;100.00;100690.50;5013142;28;20193;-73
2021/08/28 06:00:37;;;;;;;5.57;5.13;;;;;;;13.01;100.00;100689.06;5013512;28;20223;-74
2021/08/28 06:03:02;;;;;;;5.97;5.47;;;;;;;12.95;100.00;100684.88;5013378;28;20177;-74
2021/08/28 06:05:28;;;;;;;5.07;4.67;;;;;;;12.93;100.00;100683.56;5012552;28;20311;-74
2021/08/28 06:07:53;;;;;;;5.93;5.37;;;;;;;12.94;100.00;100682.44;5012819;28;20469;-74
2021/08/28 06:10:18;;;;;;;6.10;5.47;;;;;;;12.93;100.00;100676.16;5012694;28;20179;-74
2021/08/28 06:12:44;;;;;;;6.60;5.97;;;;;;;13.00;100.00;100681.94;5012750;28;20187;-73
2021/08/28 06:15:10;;;;;;;5.70;5.27;;;;;;;13.02;100.00;100667.94;5012372;28;20196;-72
2021/08/28 06:17:35;;;;;;;6.70;6.10;;;;;;;13.01;100.00;100678.09;5012449;28;20425;-73
2021/08/28 06:20:00;;;;;;;5.60;5.17;;;;;;;13.01;100.00;100680.81;5012611;28;20183;-73
2021/08/28 06:22:26;;;;;;;7.23;6.63;;;;;;;13.06;100.00;100683.44;5012542;28;20176;-73
2021/08/28 06:24:51;;;;;;;6.20;5.63;;;;;;;13.15;100.00;100677.13;5012240;28;20654;-73
2021/08/28 06:27:17;;;;;;;6.37;5.73;;;;;;;13.15;100.00;100677.91;5012392;28;20557;-74
2021/08/28 06:29:42;;;;;;;6.47;5.87;;;;;;;13.22;100.00;100674.75;5012422;28;20189;-74
2021/08/28 06:32:07;;;;;;;7.33;6.73;;;;;;;13.23;100.00;100676.34;5012031;28;20180;-73
2021/08/28 06:34:33;;;;;;;7.00;6.40;;;;;;;13.27;100.00;100682.81;5012050;28;20176;-73
2021/08/28 06:36:58;;;;;;;6.90;5.70;;;;;;;13.30;100.00;100682.94;5012300;28;20180;-73
2021/08/28 06:39:23;;;;;;;6.93;6.30;;;;;;;13.40;100.00;100695.56;5012240;28;20263;-73
2021/08/28 06:41:49;;;;;;;6.93;6.30;;;;;;;13.42;100.00;100693.28;5012584;28;20181;-73
2021/08/28 06:44:16;;;;;;;6.80;6.20;;;;;;;13.51;100.00;100698.78;5011609;28;20268;-73
2021/08/28 06:46:42;;;;;;;6.37;5.87;;;;;;;13.57;100.00;100695.53;5012067;28;20208;-73
2021/08/28 06:49:08;;;;;;;7.37;6.67;;;;;;;13.66;100.00;100696.34;5012049;28;20173;-73
2021/08/28 06:51:33;;;;;;;6.57;5.90;;;;;;;13.75;100.00;100704.56;5012477;28;20169;-73
2021/08/28 06:53:58;;;;;;;6.53;6.03;;;;;;;13.82;100.00;100709.53;5011740;28;20231;-73
2021/08/28 06:56:24;;;;;;;7.07;6.47;;;;;;;13.80;100.00;100700.84;5012433;28;20185;-73
2021/08/28 06:58:49;;;;;;;6.40;5.87;;;;;;;13.84;100.00;100696.28;5011690;28;20282;-73
2021/08/28 07:01:15;;;;;;;5.37;4.87;;;;;;;13.83;100.00;100705.66;5011936;28;20181;-73
2021/08/28 07:03:40;;;;;;;5.47;5.07;;;;;;;13.81;100.00;100705.19;5011465;28;20187;-73
2021/08/28 07:06:05;;;;;;;6.37;5.83;;;;;;;13.80;100.00;100709.06;5010273;28;20181;-73
2021/08/28 07:08:31;;;;;;;6.50;6.00;;;;;;;13.79;100.00;100710.19;5011698;28;20200;-73
2021/08/28 07:10:56;;;;;;;5.37;4.87;;;;;;;13.73;100.00;100711.50;5008942;28;20243;-72
2021/08/28 07:13:22;;;;;;;6.00;5.50;;;;;;;13.79;100.00;100705.50;5010646;28;20214;-73
2021/08/28 07:15:48;;;;;;;5.97;5.47;;;;;;;13.84;100.00;100708.06;5012005;28;20172;-72
2021/08/28 07:18:14;;;;;;;5.27;4.77;;;;;;;13.86;100.00;100710.50;5011720;28;20222;-73
2021/08/28 07:20:40;;;;;;;5.33;4.83;;;;;;;13.76;100.00;100706.19;5011806;28;20537;-73
2021/08/28 07:23:06;;;;;;;5.87;5.37;;;;;;;13.87;100.00;100714.84;5011908;28;20227;-73
2021/08/28 07:25:37;;;;;;;6.17;5.63;;;;;;;13.90;100.00;100712.28;5011666;28;20185;-76
2021/08/28 07:28:08;;;;;;;6.60;6.00;;;;;;;13.57;100.00;100708.44;5002421;28;20335;-74
2021/08/28 07:30:34;;;;;;;6.37;5.77;;;;;;;13.85;100.00;100708.88;5001723;28;20180;-76
2021/08/28 07:32:59;;;;;;;6.63;6.03;;;;;;;14.03;100.00;100704.16;5000557;28;20180;-76
2021/08/28 07:35:26;;;;;;;6.17;5.67;;;;;;;14.24;100.00;100716.06;5000320;28;20185;-74
2021/08/28 07:37:51;;;;;;;7.30;5.90;;;;;;;14.27;100.00;100707.94;4993823;28;20173;-73
2021/08/28 07:40:17;;;;;;;6.67;6.07;;;;;;;14.39;100.00;100700.94;4991913;28;20640;-74
2021/08/28 07:42:42;;;;;;;6.07;5.57;;;;;;;14.32;100.00;100701.47;4991654;28;20177;-73
2021/08/28 07:45:08;;;;;;;5.67;5.17;;;;;;;14.40;100.00;100708.88;4991765;28;20663;-74
2021/08/28 07:47:34;;;;;;;5.87;5.23;;;;;;;14.50;100.00;100711.28;4991777;28;20231;-74
2021/08/28 07:49:59;;;;;;;6.20;5.70;;;;;;;14.51;100.00;100707.38;4991782;28;20226;-73
2021/08/28 07:52:24;;;;;;;5.47;5.03;;;;;;;14.47;100.00;100706.44;4991753;28;20191;-74
2021/08/28 07:54:50;;;;;;;5.30;4.90;;;;;;;14.55;100.00;100707.53;4991505;28;20256;-73
2021/08/28 07:57:15;;;;;;;4.90;4.40;;;;;;;14.74;100.00;100712.59;4991647;28;20655;-74
2021/08/28 07:59:40;;;;;;;5.30;4.83;;;;;;;14.80;100.00;100708.53;4992046;28;20224;-74
2021/08/28 08:02:06;;;;;;;5.33;4.93;;;;;;;14.91;100.00;100711.69;4992020;28;20580;-73
2021/08/28 08:04:31;;;;;;;5.30;4.80;;;;;;;15.07;100.00;100708.03;4991424;28;20185;-74
2021/08/28 08:06:56;;;;;;;5.57;5.07;;;;;;;15.11;100.00;100702.66;5004335;28;20215;-74
2021/08/28 08:09:22;;;;;;;5.33;4.93;;;;;;;15.08;100.00;100714.31;5011533;28;20180;-74
2021/08/28 08:11:47;;;;;;;4.30;3.90;;;;;;;15.04;100.00;100714.16;5011010;28;20176;-74
2021/08/28 08:14:13;;;;;;;4.00;3.70;;;;;;;14.96;100.00;100715.06;5011128;28;20227;-73
2021/08/28 08:16:38;;;;;;;4.63;4.30;;;;;;;14.94;100.00;100711.03;5011689;28;20257;-74
2021/08/28 08:19:04;;;;;;;5.00;4.60;;;;;;;15.00;100.00;100713.22;5010600;28;20210;-75
2021/08/28 08:21:30;;;;;;;5.00;4.60;;;;;;;15.16;100.00;100714.25;5011178;28;20797;-74
2021/08/28 08:23:55;;;;;;;5.87;5.40;;;;;;;15.10;100.00;100714.78;5011041;28;20188;-74
2021/08/28 08:26:20;;;;;;;4.93;4.47;;;;;;;15.16;100.00;100713.44;5011239;28;20287;-74
2021/08/28 08:28:46;;;;;;;4.33;4.03;;;;;;;15.16;100.00;100714.25;5011083;28;20203;-74
2021/08/28 08:31:11;;;;;;;4.13;3.83;;;;;;;15.34;100.00;100714.13;5002343;28;20192;-74
2021/08/28 08:33:38;;;;;;;4.53;4.13;;;;;;;15.31;100.00;100707.31;4994731;28;20557;-74
2021/08/28 08:36:03;;;;;;;5.00;4.60;;;;;;;15.37;100.00;100718.97;4991433;28;20177;-73
2021/08/28 08:38:29;;;;;;;4.87;4.53;;;;;;;15.27;100.00;100717.41;4991675;28;20177;-77
2021/08/28 08:40:54;;;;;;;5.70;4.23;;;;;;;15.27;100.00;100714.66;4991269;28;20603;-71
2021/08/28 08:43:20;;;;;;;5.30;4.90;;;;;;;15.17;100.00;100729.63;4990440;28;20202;-74
2021/08/28 08:45:46;;;;;;;4.37;4.00;;;;;;;15.14;100.00;100724.78;4990547;28;20637;-73
2021/08/28 08:48:13;;;;;;;4.43;4.03;;;;;;;15.19;100.00;100732.06;4990650;28;20228;-74
2021/08/28 08:50:39;;;;;;;4.40;4.10;;;;;;;15.13;100.00;100720.44;4989274;28;20188;-74
2021/08/28 08:53:05;;;;;;;4.67;4.27;;;;;;;15.17;100.00;100721.34;4990735;28;20173;-74
2021/08/28 08:55:32;;;;;;;4.27;3.97;;;;;;;15.15;100.00;100718.13;4990654;28;20185;-73
2021/08/28 08:57:59;;;;;;;4.80;4.40;;;;;;;15.29;100.00;100726.13;4990582;28;20193;-73
2021/08/28 09:00:24;;;;;;;4.03;3.73;;;;;;;15.31;100.00;100723.84;4990852;28;20268;-74
2021/08/28 09:02:50;;;;;;;4.57;4.17;;;;;;;15.26;100.00;100723.25;4990853;28;20316;-74
2021/08/28 09:05:15;;;;;;;5.37;3.60;;;;;;;15.14;100.00;100729.50;4990504;28;20181;-73
2021/08/28 09:07:41;;;;;;;4.67;4.27;;;;;;;15.12;100.00;100732.56;4990469;28;20201;-74
2021/08/28 09:10:07;;;;;;;5.10;4.17;;;;;;;15.07;100.00;100734.72;4990882;28;20591;-74
2021/08/28 09:12:37;;;;;;;5.03;4.63;;;;;;;15.03;100.00;100729.06;4990644;28;20173;-74
2021/08/28 09:15:04;;;;;;;3.83;3.53;;;;;;;15.13;100.00;100736.94;4990253;28;20177;-73
2021/08/28 09:17:30;;;;;;;6.03;4.17;;;;;;;15.15;100.00;100737.41;4990225;28;20178;-74
2021/08/28 09:19:55;;;;;;;5.60;5.10;;;;;;;15.23;100.00;100737.69;4990477;28;20169;-74
2021/08/28 09:22:25;;;;;;;4.83;4.33;;;;;;;15.19;100.00;100737.56;4990441;28;20197;-74
2021/08/28 09:24:51;;;;;;;4.50;4.20;;;;;;;15.26;100.00;100740.56;4990143;28;20253;-74
2021/08/28 09:27:43;;;;;;;4.47;4.13;;;;;;;15.38;100.00;100734.34;4990258;28;20197;-74
2021/08/28 09:30:34;;;;;;;4.10;3.80;;;;;;;15.35;100.00;100755.09;4991453;28;20177;-74
2021/08/28 09:33:08;;;;;;;4.20;3.90;;;;;;;15.36;100.00;100753.13;4993612;28;20255;-74
2021/08/28 09:35:39;;;;;;;4.70;4.40;;;;;;;15.45;100.00;100749.16;4993638;28;20177;-74
2021/08/28 09:38:10;;;;;;;3.73;3.47;;;;;;;15.42;100.00;100738.81;4994307;28;20169;-74
2021/08/28 09:40:38;;;;;;;3.40;3.20;;;;;;;15.47;100.00;100752.38;4994178;28;20324;-74
2021/08/28 09:43:11;;;;;;;4.20;3.70;;;;;;;15.52;100.00;100751.38;4993489;28;20264;-73
2021/08/28 09:45:37;;;;;;;4.33;4.03;;;;;;;15.57;100.00;100753.91;4993448;28;20184;-74
2021/08/28 09:48:07;;;;;;;3.77;3.47;;;;;;;15.65;100.00;100746.78;4993548;28;20196;-73
2021/08/28 09:50:33;;;;;;;4.10;3.80;;;;;;;15.73;100.00;100749.44;4993382;28;20272;-74
2021/08/28 09:53:21;;;;;;;4.10;3.80;;;;;;;15.73;100.00;100933.19;4993353;28;20180;-74
2021/08/28 09:55:54;;;;;;;3.80;3.60;;;;;;;15.77;100.00;100766.91;4993152;28;20173;-74
2021/08/28 09:58:23;;;;;;;3.53;3.30;;;;;;;15.68;100.00;100760.66;4993403;28;20641;-74
2021/08/28 10:00:49;;;;;;;4.00;3.40;;;;;;;15.67;100.00;100755.50;4993769;28;20272;-74
2021/08/28 10:03:14;;;;;;;3.57;3.37;;;;;;;15.72;100.00;100756.09;4991972;28;20328;-74
2021/08/28 10:05:43;;;;;;;3.50;3.30;;;;;;;15.76;100.00;100754.25;5003505;28;20187;-74
2021/08/28 10:08:09;;;;;;;3.97;3.67;;;;;;;15.73;100.00;100751.38;5010829;28;20234;-74
2021/08/28 10:10:37;;;;;;;3.73;3.43;;;;;;;15.72;100.00;100753.31;5010007;28;20636;-73
2021/08/28 10:13:05;;;;;;;3.97;3.67;;;;;;;15.68;100.00;100751.59;5011790;28;20264;-74
2021/08/28 10:15:34;;;;;;;3.30;3.10;;;;;;;15.69;100.00;100743.00;5010569;28;20184;-74
2021/08/28 10:18:01;;;;;;;4.47;4.07;;;;;;;15.73;100.00;100749.44;5012303;28;20203;-74
2021/08/28 10:20:28;;;;;;;4.03;3.73;;;;;;;15.71;100.00;100742.66;5009651;28;20177;-73
2021/08/28 10:22:56;;;;;;;3.47;3.17;;;;;;;15.75;100.00;100754.59;5007904;28;20284;-73
2021/08/28 10:25:25;;;;;;;4.23;3.83;;;;;;;15.70;100.00;100744.59;5008845;28;20176;-73
2021/08/28 10:27:52;;;;;;;3.47;3.20;;;;;;;15.75;100.00;100749.09;5009606;28;20431;-73
2021/08/28 10:30:19;;;;;;;4.20;3.90;;;;;;;15.63;100.00;100740.81;5012954;28;20180;-73
2021/08/28 10:32:46;;;;;;;2.67;2.40;;;;;;;15.60;100.00;100749.72;5024213;28;20172;-73
2021/08/28 10:35:13;;;;;;;2.90;2.70;;;;;;;15.45;100.00;100743.66;5011122;28;20169;-73
2021/08/28 10:37:39;;;;;;;2.70;2.50;;;;;;;15.44;100.00;100739.28;5009861;28;20196;-73
2021/08/28 10:40:35;;;;;;;1.90;1.80;;;;;;;15.40;100.00;100743.88;5012124;28;20577;-73
2021/08/28 10:43:04;;;;;;;2.80;2.60;;;;;;;15.50;100.00;100748.16;5008226;28;20648;-74
2021/08/28 10:45:38;;;;;;;1.97;1.87;;;;;;;15.50;100.00;100747.38;5011958;28;20212;-74
2021/08/28 10:48:05;;;;;;;2.67;2.47;;;;;;;15.21;100.00;100751.78;5011441;28;20204;-74
2021/08/28 10:50:38;;;;;;;3.27;2.97;;;;;;;15.23;100.00;100749.50;5012002;28;20177;-74
2021/08/28 10:53:05;;;;;;;3.27;2.97;;;;;;;15.06;100.00;100749.63;5011911;28;20190;-74
2021/08/28 10:55:49;;;;;;;3.63;3.33;;;;;;;14.91;100.00;100755.72;5011583;28;20181;-74
2021/08/28 10:58:17;;;;;;;2.97;2.77;;;;;;;14.77;100.00;100751.25;5011851;28;20584;-74
2021/08/28 11:00:55;;;;;;;3.33;3.13;;;;;;;14.91;100.00;100752.97;5011707;28;20636;-74
2021/08/28 11:03:31;;;;;;;3.87;3.57;;;;;;;14.83;100.00;100749.91;5011772;28;20672;-74
2021/08/28 11:06:15;;;;;;;3.27;3.07;;;;;;;14.65;100.00;100747.59;5011578;28;20172;-74
2021/08/28 11:08:54;;;;;;;3.90;3.60;;;;;;;14.72;100.00;100747.88;5011640;28;20176;-74
2021/08/28 11:11:20;;;;;;;3.47;3.27;;;;;;;14.97;100.00;100755.19;5011424;28;20265;-74
2021/08/28 11:14:03;;;;;;;3.77;3.47;;;;;;;14.99;100.00;100749.34;5010302;28;20192;-74
2021/08/28 11:16:41;;;;;;;3.00;2.80;;;;;;;15.03;100.00;100747.53;5010812;28;20224;-78
2021/08/28 11:19:31;;;;;;;5.43;3.60;;;;;;;15.13;100.00;100750.69;5010032;28;20546;-74